Detalii statie CORIPLANT MIHALT [0000197B]

Toti senzorii

Date Temperatura solului [C]Precipitatii [mm]Voltaj baterie [mV]Leaf Wetness [Min]HC Air temperature [C]HC Relative humidity [%]Punctul de roua [C]
medieminmaxsumaultimatimpmedieminmaxmediemediemin
2019-08-15 20:00:00 0 6884 17.94 17.17 18.55 100 17.9 17.1
2019-08-15 21:00:00 0 6844 16.9 16.62 17.06 100 16.8 16.6
2019-08-15 22:00:00 0 6826 16.88 16.65 17.16 100 16.8 16.6
2019-08-15 23:00:00 0 6826 16.62 16.51 16.79 100 16.5 16.5
2019-08-16 00:00:00 0 6806 16.35 16.27 16.44 100 16.3 16.2
2019-08-16 01:00:00 0 6786 16.54 16.36 16.63 100 16.5 16.3
2019-08-16 02:00:00 0 6776 16.54 16.35 16.69 100 16.5 16.3
2019-08-16 03:00:00 0 6776 16.53 16.38 16.65 100 16.5 16.3
2019-08-16 04:00:00 0 6756 16.44 16.16 16.55 100 16.3 16.1
2019-08-16 05:00:00 0 6756 15.94 15.75 16.06 100 15.9 15.7
2019-08-16 06:00:00 0 6756 15.33 15.01 15.73 100 15.3 15
2019-08-16 07:00:00 0 6776 15.01 14.94 15.11 100 14.9 14.9
2019-08-16 08:00:00 0 6796 15.28 15.06 15.62 100 15.2 15
2019-08-16 09:00:00 0 7050 16.2 15.67 17 100 16.1 15.6
2019-08-16 10:00:00 0 7176 18.77 17.12 21.43 100 18.7 17.1
2019-08-16 11:00:00 0 7118 22.86 21.12 24.35 98.67 22.5 21.1
2019-08-16 12:00:00 0 7176 24.36 21.94 25.84 94.8 23.3 21.7
2019-08-16 13:00:00 0 7176 25.35 24.31 26.44 88.46 23.1 22.2
2019-08-16 14:00:00 0 7186 24.91 23.95 26.29 85.19 22.1 21
2019-08-16 15:00:00 0 7098 25.3 23.33 26.77 88.2 23 22.1
2019-08-16 16:00:00 0 7128 24.56 22.78 25.9 88.9 22.4 21.1
2019-08-16 17:00:00 0 7118 23.47 22.5 25.05 91.61 21.8 21.4
2019-08-16 18:00:00 0 7050 22.26 22.06 22.47 97.6 21.7 21.3
2019-08-16 19:00:00 0 6952 21.59 20.94 22.14 97.83 21.1 20.7
2019-08-16 20:00:00 0 6884 19.73 18.74 20.76 100 19.6 18.7
2019-08-16 21:00:00 0 6854 18.46 17.97 18.76 100 18.4 17.9
2019-08-16 22:00:00 0 6844 16.87 15.85 17.85 100 16.8 15.8
2019-08-16 23:00:00 0 6834 14.99 14.34 15.77 100 14.9 14.3
2019-08-17 00:00:00 0 6826 13.81 13.06 14.3 100 13.7 13
2019-08-17 01:00:00 0 6796 13.01 12.49 13.37 100 12.9 12.4
2019-08-17 02:00:00 0 6796 12.09 11.57 12.62 100 12 11.5
2019-08-17 03:00:00 0 6776 11.82 11.46 12.15 100 11.7 11.4
2019-08-17 04:00:00 0 6776 11.19 10.76 11.52 100 11.1 10.7
2019-08-17 05:00:00 0 6766 10.73 10.23 11.16 100 10.6 10.2
2019-08-17 06:00:00 0 6766 10.17 9.94 10.4 100 10.1 9.9
2019-08-17 07:00:00 0 6864 10.94 10.35 11.76 100 10.9 10.3
2019-08-17 08:00:00 0 6982 12.68 11.82 13.42 100 12.6 11.8
2019-08-17 09:00:00 0 7040 16.04 13.76 17.26 100 15.9 13.7
2019-08-17 10:00:00 0 7050 21.09 17.32 23.93 100 21 17.3
2019-08-17 11:00:00 0 7070 24.83 23.74 25.77 92.47 23.3 22.1
2019-08-17 12:00:00 0 7176 25.66 24.86 27.19 79.88 21.8 20.7
2019-08-17 13:00:00 0 7176 28.31 27.38 29.11 74.26 23.1 21.4
2019-08-17 14:00:00 0 7176 27.16 24.87 29.12 76.44 22.5 20.5
2019-08-17 15:00:00 0 7176 27.76 26.45 28.74 77.29 23.2 22.2
2019-08-17 16:00:00 0 7166 28.6 27.73 29.97 76.63 23.8 22.9
2019-08-17 17:00:00 0 7186 25.97 25.25 28.13 84.69 23 21.9
2019-08-17 18:00:00 0 7080 25.48 25.08 26.06 87.54 23.1 22.1
2019-08-17 19:00:00 0 6992 23.19 21.85 24.81 97.81 22.7 21.8